createdAt,value
2022-10-09T00:00:37.267Z,101927.28
2022-10-09T00:03:03.586Z,101930.19
2022-10-09T00:05:29.929Z,101933.06
2022-10-09T00:07:56.557Z,101938.03
2022-10-09T00:10:22.942Z,101930.06
2022-10-09T00:12:49.570Z,101941.56
2022-10-09T00:15:16.362Z,101943.06
2022-10-09T00:17:42.680Z,101942.31
2022-10-09T00:20:09.093Z,101945.94
2022-10-09T00:22:35.408Z,101942.31
2022-10-09T00:25:01.719Z,101945.81
2022-10-09T00:27:28.025Z,101960.22
2022-10-09T00:29:54.348Z,101957.34
2022-10-09T00:32:20.659Z,101961.63
2022-10-09T00:34:46.981Z,101965.88
2022-10-09T00:37:13.302Z,101965.88
2022-10-09T00:39:39.614Z,101974.50
2022-10-09T00:42:05.922Z,101978.78
2022-10-09T00:44:57.231Z,101978.16
2022-10-09T00:47:28.742Z,101986.69
2022-10-09T00:49:56.903Z,101981.66
2022-10-09T00:52:23.319Z,101992.44
2022-10-09T00:54:49.659Z,101985.16
2022-10-09T00:57:15.999Z,101990.94
2022-10-09T00:59:42.326Z,101990.19
2022-10-09T01:02:08.709Z,101993.06
2022-10-09T01:04:35.117Z,101991.56
2022-10-09T01:07:04.522Z,101993.69
2022-10-09T01:09:39.298Z,102004.47
2022-10-09T01:12:11.880Z,101997.22
2022-10-09T01:15:01.484Z,101992.94
2022-10-09T01:17:31.052Z,102001.97
2022-10-09T01:20:16.128Z,101997.69
2022-10-09T01:22:47.915Z,102005.72
2022-10-09T01:25:15.397Z,102001.44
2022-10-09T01:27:42.178Z,102007.84
2022-10-09T01:30:08.909Z,102014.22
2022-10-09T01:32:36.589Z,102009.22
2022-10-09T01:35:03.050Z,102004.09
2022-10-09T01:37:29.349Z,102014.84
2022-10-09T01:39:55.666Z,102011.22
2022-10-09T01:42:22.331Z,102017.72
2022-10-09T01:44:48.644Z,102014.75
2022-10-09T01:47:15.874Z,102014.75
2022-10-09T01:49:45.439Z,102032.13
2022-10-09T01:52:30.597Z,102032.03
2022-10-09T01:55:04.673Z,102026.28
2022-10-09T01:57:38.977Z,102026.28
2022-10-09T02:00:07.018Z,102030.53
2022-10-09T02:02:38.052Z,102033.41
2022-10-09T02:05:04.402Z,102034.03
2022-10-09T02:07:30.704Z,102030.53
2022-10-09T02:09:57.023Z,102029.78
2022-10-09T02:12:23.357Z,102036.28
2022-10-09T02:14:50.001Z,102040.56
2022-10-09T02:17:17.579Z,102034.78
2022-10-09T02:19:44.397Z,102034.78
2022-10-09T02:22:20.355Z,102037.53
2022-10-09T02:24:46.684Z,102034.66
2022-10-09T02:27:13.027Z,102043.31
2022-10-09T02:29:42.713Z,102051.31
2022-10-09T02:32:09.315Z,102050.56
2022-10-09T02:34:35.626Z,102039.78
2022-10-09T02:37:01.929Z,102045.53
2022-10-09T02:39:28.233Z,102042.03
2022-10-09T02:41:54.529Z,102043.56
2022-10-09T02:44:20.838Z,102050.81
2022-10-09T02:46:47.219Z,102043.78
2022-10-09T02:49:13.532Z,102051.94
2022-10-09T02:51:39.867Z,102044.03
2022-10-09T02:54:06.178Z,102044.19
2022-10-09T02:56:36.641Z,102047.81
2022-10-09T02:59:05.032Z,102045.72
2022-10-09T03:01:31.409Z,102045.06
2022-10-09T03:03:57.752Z,102047.94
2022-10-09T03:06:24.676Z,102040.06
2022-10-09T03:08:51.011Z,102050.09
2022-10-09T03:11:17.585Z,102051.56
2022-10-09T03:13:44.143Z,102053.09
2022-10-09T03:16:11.261Z,102059.59
2022-10-09T03:18:37.606Z,102053.22
2022-10-09T03:21:10.595Z,102054.72
2022-10-09T03:23:36.902Z,102059.09
2022-10-09T03:26:04.572Z,102053.34
2022-10-09T03:28:30.911Z,102049.69
2022-10-09T03:30:57.310Z,102051.22
2022-10-09T03:33:23.665Z,102060.59
2022-10-09T03:35:50.000Z,102056.22
2022-10-09T03:38:16.331Z,102069.13
2022-10-09T03:40:42.779Z,102064.88
2022-10-09T03:43:09.092Z,102065.63
2022-10-09T03:45:35.412Z,102062.00
2022-10-09T03:48:01.719Z,102065.63
2022-10-09T03:50:28.052Z,102068.63
2022-10-09T03:52:54.357Z,102063.47
2022-10-09T03:55:20.697Z,102072.13
2022-10-09T03:57:47.010Z,102075.75
2022-10-09T04:00:13.594Z,102067.88
2022-10-09T04:02:39.969Z,102072.13
2022-10-09T04:05:06.585Z,102071.38
2022-10-09T04:07:32.926Z,102070.63
2022-10-09T04:09:59.258Z,102076.41
2022-10-09T04:12:25.615Z,102070.75
2022-10-09T04:14:51.967Z,102073.66
2022-10-09T04:17:18.286Z,102073.66
2022-10-09T04:19:44.662Z,102080.91
2022-10-09T04:22:10.980Z,102089.56
2022-10-09T04:24:37.310Z,102089.69
2022-10-09T04:27:03.626Z,102093.91
2022-10-09T04:29:29.960Z,102096.19
2022-10-09T04:31:56.324Z,102099.06
2022-10-09T04:34:22.678Z,102105.59
2022-10-09T04:36:48.987Z,102104.09
2022-10-09T04:39:15.313Z,102102.69
2022-10-09T04:41:41.654Z,102101.22
2022-10-09T04:44:08.001Z,102096.94
2022-10-09T04:46:34.309Z,102098.31
2022-10-09T04:49:00.671Z,102104.09
2022-10-09T04:51:26.977Z,102099.19
2022-10-09T04:53:58.417Z,102100.59
2022-10-09T04:56:26.893Z,102094.19
2022-10-09T04:58:53.201Z,102091.81
2022-10-09T05:01:20.752Z,102102.69
2022-10-09T05:03:47.091Z,102098.44
2022-10-09T05:06:13.549Z,102102.81
2022-10-09T05:08:39.949Z,102105.72
2022-10-09T05:11:07.292Z,102100.69
2022-10-09T05:13:36.607Z,102113.00
2022-10-09T05:16:16.052Z,102107.97
2022-10-09T05:18:43.102Z,102107.22
2022-10-09T05:21:09.417Z,102117.38
2022-10-09T05:23:35.757Z,102123.13
2022-10-09T05:26:03.489Z,102119.50
2022-10-09T05:28:30.058Z,102121.75
2022-10-09T05:30:56.431Z,102124.53
2022-10-09T05:33:22.749Z,102127.53
2022-10-09T05:35:55.873Z,102130.41
2022-10-09T05:38:22.638Z,102134.78
2022-10-09T05:40:56.721Z,102129.75
2022-10-09T05:43:23.715Z,102136.28
2022-10-09T05:45:50.101Z,102130.41
2022-10-09T05:48:16.462Z,102146.31
2022-10-09T05:50:42.789Z,102145.56
2022-10-09T05:53:09.106Z,102147.06
2022-10-09T05:55:35.429Z,102159.34
2022-10-09T05:58:01.733Z,102154.34
2022-10-09T06:00:28.057Z,102163.63
2022-10-09T06:02:54.958Z,102166.63
2022-10-09T06:05:21.643Z,102167.38
2022-10-09T06:07:47.954Z,102178.91
2022-10-09T06:10:14.281Z,102178.16
2022-10-09T06:12:40.590Z,102170.25
2022-10-09T06:15:07.053Z,102176.63
2022-10-09T06:17:33.426Z,102178.78
2022-10-09T06:19:59.746Z,102179.50
2022-10-09T06:22:26.110Z,102186.69
2022-10-09T06:24:52.447Z,102188.16
2022-10-09T06:27:18.749Z,102188.16
2022-10-09T06:29:45.064Z,102191.06
2022-10-09T06:32:11.375Z,102186.69
2022-10-09T06:34:37.677Z,102192.56
2022-10-09T06:37:03.981Z,102192.56
2022-10-09T06:39:30.289Z,102199.09
2022-10-09T06:41:56.599Z,102199.09
2022-10-09T06:44:29.797Z,102207.72
2022-10-09T06:46:56.135Z,102209.88
2022-10-09T06:49:22.452Z,102204.09
2022-10-09T06:51:48.768Z,102207.72
2022-10-09T06:54:16.174Z,102207.72
2022-10-09T06:56:42.674Z,102208.47
2022-10-09T06:59:09.640Z,102210.00
2022-10-09T07:01:35.989Z,102216.03
2022-10-09T07:04:03.485Z,102218.78
2022-10-09T07:06:30.425Z,102223.16
2022-10-09T07:08:57.802Z,102223.91
2022-10-09T07:11:24.899Z,102220.25
2022-10-09T07:13:52.588Z,102220.72
2022-10-09T07:16:19.504Z,102216.91
2022-10-09T07:18:45.857Z,102227.69
2022-10-09T07:21:12.171Z,102224.63
2022-10-09T07:23:38.485Z,102228.50
2022-10-09T07:26:11.825Z,102231.22
2022-10-09T07:28:38.177Z,102234.63
2022-10-09T07:31:04.713Z,102234.13
2022-10-09T07:33:31.097Z,102234.00
2022-10-09T07:35:57.700Z,102234.19
2022-10-09T07:38:24.525Z,102229.91
2022-10-09T07:40:53.879Z,102238.72
2022-10-09T07:43:20.235Z,102244.22
2022-10-09T07:45:46.648Z,102238.66
2022-10-09T07:48:13.021Z,102237.13
2022-10-09T07:50:39.398Z,102253.34
2022-10-09T07:53:05.723Z,102248.09
2022-10-09T07:55:32.044Z,102250.25
2022-10-09T07:57:58.501Z,102249.31
2022-10-09T08:00:24.854Z,102250.34
2022-10-09T08:02:51.632Z,102248.59
2022-10-09T08:05:18.276Z,102248.00
2022-10-09T08:07:44.582Z,102256.91
2022-10-09T08:10:10.943Z,102250.66
2022-10-09T08:12:37.259Z,102251.41
2022-10-09T08:15:03.625Z,102255.19
2022-10-09T08:17:29.942Z,102258.94
2022-10-09T08:19:58.025Z,102258.19
2022-10-09T08:22:24.388Z,102266.97
2022-10-09T08:24:50.710Z,102268.47
2022-10-09T08:27:17.118Z,102259.97
2022-10-09T08:29:43.440Z,102258.72
2022-10-09T08:32:09.762Z,102264.59
2022-10-09T08:34:36.197Z,102266.13
2022-10-09T08:37:02.527Z,102267.63
2022-10-09T08:39:30.989Z,102273.53
2022-10-09T08:41:57.656Z,102276.53
2022-10-09T08:44:33.651Z,102278.03
2022-10-09T08:47:12.669Z,102271.47
2022-10-09T08:49:48.455Z,102276.00
2022-10-09T08:52:23.375Z,102270.63
2022-10-09T08:54:50.074Z,102274.00
2022-10-09T08:57:16.485Z,102267.75
2022-10-09T08:59:42.929Z,102262.28
2022-10-09T09:02:25.672Z,102270.88
2022-10-09T09:05:08.896Z,102261.09
2022-10-09T09:07:44.899Z,102269.19
2022-10-09T09:10:18.178Z,102264.94
2022-10-09T09:13:00.640Z,102262.66
2022-10-09T09:15:40.045Z,102260.38
2022-10-09T09:18:10.526Z,102262.38
2022-10-09T09:20:36.779Z,102261.47
2022-10-09T09:23:03.095Z,102264.75
2022-10-09T09:25:31.145Z,102254.75
2022-10-09T09:27:58.712Z,102260.59
2022-10-09T09:30:27.301Z,102251.97
2022-10-09T09:32:59.403Z,102253.50
2022-10-09T09:35:32.667Z,102250.00
2022-10-09T09:37:59.011Z,102257.72
2022-10-09T09:40:46.752Z,102256.50
2022-10-09T09:43:14.929Z,102252.25
2022-10-09T09:45:41.271Z,102262.41
2022-10-09T09:48:11.043Z,102253.75
2022-10-09T09:50:53.136Z,102254.63
2022-10-09T09:53:28.734Z,102252.38
2022-10-09T09:55:55.049Z,102249.50
2022-10-09T09:58:21.375Z,102254.00
2022-10-09T10:00:57.801Z,102252.63
2022-10-09T10:03:24.254Z,102242.47
2022-10-09T10:05:50.560Z,102241.84
2022-10-09T10:08:26.838Z,102246.88
2022-10-09T10:10:56.663Z,102238.38
2022-10-09T10:13:28.614Z,102242.75
2022-10-09T10:15:55.577Z,102247.28
2022-10-09T10:18:22.393Z,102238.78
2022-10-09T10:20:55.827Z,102236.28
2022-10-09T10:23:22.079Z,102237.66
2022-10-09T10:25:49.367Z,102225.50
2022-10-09T10:28:16.791Z,102232.03
2022-10-09T10:30:43.137Z,102229.22
2022-10-09T10:33:19.625Z,102224.34
2022-10-09T10:35:45.967Z,102225.69
2022-10-09T10:38:19.680Z,102221.13
2022-10-09T10:40:52.952Z,102226.16
2022-10-09T10:43:38.011Z,102228.56
2022-10-09T10:46:11.268Z,102224.44
2022-10-09T10:48:41.396Z,102228.19
2022-10-09T10:51:10.480Z,102216.66
2022-10-09T10:53:40.748Z,102214.66
2022-10-09T10:56:08.393Z,102214.66
2022-10-09T10:58:49.832Z,102199.66
2022-10-09T11:01:28.637Z,102202.53
2022-10-09T11:04:09.937Z,102193.88
2022-10-09T11:06:42.133Z,102199.81
2022-10-09T11:09:27.328Z,102202.69
2022-10-09T11:12:00.157Z,102201.31
2022-10-09T11:14:33.378Z,102199.94
2022-10-09T11:17:11.996Z,102194.94
2022-10-09T11:19:45.737Z,102195.66
2022-10-09T11:22:31.513Z,102189.91
2022-10-09T11:25:16.672Z,102187.03
2022-10-09T11:27:59.084Z,102177.00
2022-10-09T11:30:26.654Z,102181.38
2022-10-09T11:32:55.721Z,102169.84
2022-10-09T11:35:22.798Z,102171.38
2022-10-09T11:38:01.668Z,102169.84
2022-10-09T11:40:34.890Z,102159.84
2022-10-09T11:43:04.415Z,102167.13
2022-10-09T11:45:42.474Z,102161.34
2022-10-09T11:48:10.251Z,102156.97
2022-10-09T11:50:42.786Z,102142.56
2022-10-09T11:53:09.653Z,102144.06
2022-10-09T11:55:35.974Z,102136.94
2022-10-09T11:58:09.474Z,102137.06
2022-10-09T12:00:36.126Z,102143.56
2022-10-09T12:03:03.357Z,102133.53
2022-10-09T12:05:29.598Z,102134.28
2022-10-09T12:08:05.195Z,102131.38
2022-10-09T12:10:32.587Z,102131.38
2022-10-09T12:12:59.665Z,102131.38
2022-10-09T12:15:36.792Z,102125.75
2022-10-09T12:18:12.224Z,102120.25
2022-10-09T12:20:38.537Z,102120.13
2022-10-09T12:23:25.588Z,102120.25
2022-10-09T12:25:52.841Z,102110.22
2022-10-09T12:28:30.020Z,102111.72
2022-10-09T12:30:56.907Z,102112.59
2022-10-09T12:33:28.349Z,102109.22
2022-10-09T12:36:05.152Z,102104.69
2022-10-09T12:38:31.882Z,102106.72
2022-10-09T12:41:05.468Z,102101.69
2022-10-09T12:43:32.370Z,102100.94
2022-10-09T12:45:58.831Z,102098.69
2022-10-09T12:48:25.958Z,102101.69
2022-10-09T12:50:52.327Z,102099.44
2022-10-09T12:53:22.778Z,102098.94
2022-10-09T12:56:00.352Z,102091.06
2022-10-09T12:58:30.665Z,102090.16
2022-10-09T13:00:57.837Z,102088.16
2022-10-09T13:03:36.603Z,102082.00
2022-10-09T13:06:03.105Z,102082.00
2022-10-09T13:08:30.195Z,102082.63
2022-10-09T13:10:57.187Z,102078.88
2022-10-09T13:13:25.145Z,102076.84
2022-10-09T13:15:58.043Z,102066.19
2022-10-09T13:18:24.376Z,102073.38
2022-10-09T13:21:03.082Z,102061.94
2022-10-09T13:23:30.404Z,102064.72
2022-10-09T13:26:01.122Z,102062.06
2022-10-09T13:28:29.622Z,102050.69
2022-10-09T13:30:56.073Z,102052.34
2022-10-09T13:33:22.426Z,102054.19
2022-10-09T13:35:48.747Z,102044.31
2022-10-09T13:38:15.729Z,102053.09
2022-10-09T13:40:42.471Z,102051.56
2022-10-09T13:43:09.399Z,102045.78
2022-10-09T13:45:35.715Z,102046.06
2022-10-09T13:48:02.048Z,102048.31
2022-10-09T13:50:28.429Z,102045.81
2022-10-09T13:52:54.738Z,102050.03
2022-10-09T13:55:21.411Z,102045.03
2022-10-09T13:57:48.099Z,102043.03
2022-10-09T14:00:14.757Z,102043.78
2022-10-09T14:02:41.081Z,102043.13
2022-10-09T14:05:07.406Z,102035.75
2022-10-09T14:07:33.720Z,102034.28
2022-10-09T14:10:00.064Z,102033.75
2022-10-09T14:12:26.379Z,102031.38
2022-10-09T14:14:53.024Z,102025.75
2022-10-09T14:17:19.334Z,102020.72
2022-10-09T14:19:45.647Z,102016.44
2022-10-09T14:22:13.288Z,102022.97
2022-10-09T14:24:39.655Z,102014.22
2022-10-09T14:27:06.029Z,102014.22
2022-10-09T14:29:32.348Z,102011.41
2022-10-09T14:31:58.663Z,102009.19
2022-10-09T14:34:24.987Z,102011.41
2022-10-09T14:36:51.384Z,101997.78
2022-10-09T14:39:17.767Z,102012.19
2022-10-09T14:41:44.138Z,102001.41
2022-10-09T14:44:10.962Z,102001.41
2022-10-09T14:46:39.096Z,101995.53
2022-10-09T14:49:07.856Z,102001.41
2022-10-09T14:51:36.944Z,101996.91
2022-10-09T14:54:03.646Z,101996.91
2022-10-09T14:56:29.950Z,101995.53
2022-10-09T14:58:57.822Z,101994.13
2022-10-09T15:01:24.391Z,101995.53
2022-10-09T15:03:50.825Z,101985.47
2022-10-09T15:06:18.253Z,101984.00
2022-10-09T15:08:44.578Z,101977.47
2022-10-09T15:11:11.523Z,101988.34
2022-10-09T15:13:37.894Z,101981.84
2022-10-09T15:16:05.843Z,101986.88
2022-10-09T15:18:32.226Z,101979.63
2022-10-09T15:20:59.689Z,101978.22
2022-10-09T15:23:26.313Z,101980.38
2022-10-09T15:25:53.127Z,101971.84
2022-10-09T15:28:19.698Z,101969.56
2022-10-09T15:30:46.519Z,101971.72
2022-10-09T15:33:12.913Z,101973.84
2022-10-09T15:35:39.235Z,101969.56
2022-10-09T15:38:05.846Z,101962.31
2022-10-09T15:40:32.207Z,101955.03
2022-10-09T15:42:58.526Z,101952.28
2022-10-09T15:45:24.887Z,101956.56
2022-10-09T15:47:51.742Z,101961.53
2022-10-09T15:50:18.097Z,101952.03
2022-10-09T15:52:44.453Z,101955.03
2022-10-09T15:55:10.814Z,101955.03
2022-10-09T15:57:37.121Z,101956.56
2022-10-09T16:00:03.634Z,101957.78
2022-10-09T16:02:30.576Z,101957.78
2022-10-09T16:04:56.894Z,101961.53
2022-10-09T16:07:23.238Z,101951.28
2022-10-09T16:09:49.554Z,101959.31
2022-10-09T16:12:15.863Z,101947.66
2022-10-09T16:14:42.583Z,101949.16
2022-10-09T16:17:11.295Z,101950.53
2022-10-09T16:19:37.939Z,101946.16
2022-10-09T16:22:05.706Z,101942.53
2022-10-09T16:24:32.329Z,101939.00
2022-10-09T16:26:58.646Z,101944.13
2022-10-09T16:29:25.344Z,101934.75
2022-10-09T16:31:51.667Z,101933.25
2022-10-09T16:34:17.987Z,101938.28
2022-10-09T16:36:44.288Z,101930.25
2022-10-09T16:39:10.597Z,101927.50
2022-10-09T16:41:41.701Z,101931.72
2022-10-09T16:44:11.251Z,101936.00
2022-10-09T16:46:37.589Z,101949.03
2022-10-09T16:49:03.933Z,101946.28
2022-10-09T16:51:30.954Z,101946.28
2022-10-09T16:53:58.381Z,101952.31
2022-10-09T16:56:25.704Z,101950.94
2022-10-09T16:58:53.861Z,101941.66
2022-10-09T17:01:20.219Z,101936.00
2022-10-09T17:03:46.638Z,101931.72
2022-10-09T17:06:13.912Z,101936.13
2022-10-09T17:08:40.239Z,101928.97
2022-10-09T17:11:09.911Z,101930.50
2022-10-09T17:13:36.278Z,101933.50
2022-10-09T17:16:06.173Z,101923.44
2022-10-09T17:18:32.516Z,101928.47
2022-10-09T17:21:00.703Z,101923.69
2022-10-09T17:23:27.029Z,101935.78
2022-10-09T17:25:53.723Z,101937.31
2022-10-09T17:28:20.172Z,101937.53
2022-10-09T17:30:46.535Z,101938.28
2022-10-09T17:33:17.543Z,101931.66
2022-10-09T17:35:45.889Z,101940.41
2022-10-09T17:38:12.208Z,101940.13
2022-10-09T17:40:39.003Z,101934.53
2022-10-09T17:43:05.870Z,101931.84
2022-10-09T17:45:39.149Z,101926.44
2022-10-09T17:48:05.693Z,101930.38
2022-10-09T17:50:32.153Z,101929.09
2022-10-09T17:52:58.475Z,101933.75
2022-10-09T17:55:24.779Z,101930.72
2022-10-09T17:57:51.491Z,101929.22
2022-10-09T18:00:21.651Z,101923.19
2022-10-09T18:02:48.421Z,101924.88
2022-10-09T18:05:15.111Z,101924.59
2022-10-09T18:07:41.430Z,101909.47
2022-10-09T18:10:07.791Z,101915.03
2022-10-09T18:12:34.149Z,101917.00
2022-10-09T18:15:00.508Z,101912.34
2022-10-09T18:17:30.109Z,101917.56
2022-10-09T18:19:56.455Z,101907.53
2022-10-09T18:22:22.772Z,101901.78
2022-10-09T18:24:49.111Z,101899.00
2022-10-09T18:27:15.442Z,101903.25
2022-10-09T18:29:41.771Z,101899.75
2022-10-09T18:32:08.100Z,101902.00
2022-10-09T18:34:38.912Z,101902.00
2022-10-09T18:37:05.893Z,101894.09
2022-10-09T18:39:32.217Z,101888.34
2022-10-09T18:41:58.644Z,101890.34
2022-10-09T18:44:25.013Z,101894.50
2022-10-09T18:46:51.851Z,101890.13
2022-10-09T18:49:18.670Z,101889.69
2022-10-09T18:51:45.007Z,101886.19
2022-10-09T18:54:17.127Z,101888.44
2022-10-09T18:56:44.231Z,101886.19
2022-10-09T18:59:12.102Z,101887.69
2022-10-09T19:01:39.160Z,101883.19
2022-10-09T19:04:05.762Z,101883.19
2022-10-09T19:06:32.091Z,101884.72
2022-10-09T19:09:00.675Z,101880.53
2022-10-09T19:11:27.682Z,101877.03
2022-10-09T19:13:55.042Z,101878.16
2022-10-09T19:16:21.674Z,101871.66
2022-10-09T19:18:48.063Z,101871.88
2022-10-09T19:21:14.511Z,101856.84
2022-10-09T19:23:41.165Z,101854.94
2022-10-09T19:26:07.494Z,101858.56
2022-10-09T19:28:37.726Z,101863.66
2022-10-09T19:31:05.199Z,101864.56
2022-10-09T19:33:31.518Z,101860.91
2022-10-09T19:35:57.873Z,101863.91
2022-10-09T19:38:24.182Z,101855.25
2022-10-09T19:40:50.503Z,101861.66
2022-10-09T19:43:17.023Z,101849.47
2022-10-09T19:45:43.379Z,101845.22
2022-10-09T19:48:09.711Z,101851.00
2022-10-09T19:50:42.296Z,101842.44
2022-10-09T19:53:08.646Z,101840.94
2022-10-09T19:55:35.037Z,101835.16
2022-10-09T19:58:01.414Z,101836.56
2022-10-09T20:00:27.850Z,101834.41
2022-10-09T20:02:54.161Z,101845.22
2022-10-09T20:05:20.550Z,101835.06
2022-10-09T20:07:46.873Z,101837.94
2022-10-09T20:10:13.192Z,101832.16
2022-10-09T20:12:39.743Z,101832.16
2022-10-09T20:15:06.295Z,101829.16
2022-10-09T20:17:32.613Z,101833.44
2022-10-09T20:19:58.938Z,101827.69
2022-10-09T20:22:25.265Z,101826.16
2022-10-09T20:24:52.174Z,101833.34
2022-10-09T20:27:18.489Z,101829.72
2022-10-09T20:29:45.034Z,101831.06
2022-10-09T20:32:12.212Z,101827.44
2022-10-09T20:34:38.540Z,101823.09
2022-10-09T20:37:04.860Z,101831.75
2022-10-09T20:39:31.187Z,101820.09
2022-10-09T20:41:57.493Z,101817.19
2022-10-09T20:44:23.798Z,101817.19
2022-10-09T20:46:50.145Z,101808.44
2022-10-09T20:49:16.505Z,101812.81
2022-10-09T20:51:42.859Z,101809.72
2022-10-09T20:54:09.174Z,101794.53
2022-10-09T20:56:35.486Z,101803.19
2022-10-09T20:59:01.799Z,101808.22
2022-10-09T21:01:28.669Z,101805.94
2022-10-09T21:03:55.450Z,101793.56
2022-10-09T21:06:21.776Z,101808.63
2022-10-09T21:08:48.105Z,101807.34
2022-10-09T21:11:16.681Z,101803.72
2022-10-09T21:13:43.169Z,101802.22
2022-10-09T21:16:10.153Z,101805.09
2022-10-09T21:18:36.462Z,101796.25
2022-10-09T21:21:03.550Z,101794.72
2022-10-09T21:23:29.863Z,101794.22
2022-10-09T21:25:56.261Z,101784.78
2022-10-09T21:28:22.658Z,101799.22
2022-10-09T21:30:48.976Z,101785.22
2022-10-09T21:33:15.423Z,101780.19
2022-10-09T21:35:42.101Z,101779.44
2022-10-09T21:38:12.599Z,101784.59
2022-10-09T21:40:39.218Z,101777.97
2022-10-09T21:43:05.549Z,101781.72
2022-10-09T21:45:31.854Z,101774.44
2022-10-09T21:47:58.178Z,101780.75
2022-10-09T21:50:24.502Z,101777.19
2022-10-09T21:52:51.049Z,101779.97
2022-10-09T21:55:17.781Z,101771.31
2022-10-09T21:57:45.272Z,101784.25
2022-10-09T22:00:11.810Z,101779.97
2022-10-09T22:02:38.141Z,101768.34
2022-10-09T22:05:04.518Z,101767.56
2022-10-09T22:07:32.762Z,101768.22
2022-10-09T22:09:59.095Z,101756.69
2022-10-09T22:12:25.417Z,101758.94
2022-10-09T22:14:51.753Z,101752.41
2022-10-09T22:17:18.077Z,101753.81
2022-10-09T22:19:44.472Z,101750.94
2022-10-09T22:22:10.822Z,101747.94
2022-10-09T22:24:37.177Z,101750.81
2022-10-09T22:27:03.530Z,101745.06
2022-10-09T22:29:29.844Z,101737.88
2022-10-09T22:31:56.165Z,101737.88
2022-10-09T22:34:22.480Z,101744.94
2022-10-09T22:36:48.826Z,101733.41
2022-10-09T22:39:15.137Z,101733.41
2022-10-09T22:41:41.497Z,101727.66
2022-10-09T22:44:08.195Z,101729.69
2022-10-09T22:46:38.019Z,101731.16
2022-10-09T22:49:04.559Z,101730.41
2022-10-09T22:51:30.878Z,101726.13
2022-10-09T22:53:57.354Z,101723.13
2022-10-09T22:56:24.331Z,101710.13
2022-10-09T22:58:51.647Z,101713.75
2022-10-09T23:01:19.716Z,101717.38
2022-10-09T23:03:46.070Z,101704.34
2022-10-09T23:06:13.950Z,101711.59
2022-10-09T23:08:40.899Z,101701.47
2022-10-09T23:11:07.247Z,101702.88
2022-10-09T23:13:33.673Z,101714.28
2022-10-09T23:16:00.421Z,101707.13
2022-10-09T23:18:26.907Z,101703.38
2022-10-09T23:20:53.236Z,101707.13
2022-10-09T23:23:19.541Z,101705.66
2022-10-09T23:25:45.954Z,101704.13
2022-10-09T23:28:12.329Z,101699.88
2022-10-09T23:30:38.681Z,101704.88
2022-10-09T23:33:05.020Z,101698.38
2022-10-09T23:35:31.382Z,101702.75
2022-10-09T23:37:57.700Z,101702.66
2022-10-09T23:40:24.016Z,101701.03
2022-10-09T23:42:50.677Z,101693.88
2022-10-09T23:45:17.989Z,101693.16
2022-10-09T23:47:44.302Z,101692.47
2022-10-09T23:50:10.627Z,101684.38
2022-10-09T23:52:36.938Z,101688.13
2022-10-09T23:55:03.250Z,101678.06
2022-10-09T23:57:29.569Z,101688.13
2022-10-09T23:59:55.906Z,101680.97
